aviador You're here:

OJAQ Decoded Metar

AQABA in JORDAN
Report Time2018-02-22 08:00:00
UTC Time2018-02-22 08:26:34
Flight Rules vfr VFR
Wind360° at 14 kt
W.Decomp.*RWY 01: 13.6 kt HW 3.1 kt LCW
Visibility9999 m
Phenomena:N/A
Clouds:Scattered 030 Hf
Expected CloudBase > 3,200 ft AGL from Temp-Dew spread
CeilingNone
Temp18°C (ISA +3)
Dew Point10°C (60% RH)
AAT13.0°C
QNH1011 hPa
Density Alt794 ft
Elevation167 ft
Report Wrong Elevation
Raw Report
METAR OJAQ 220800Z 36014KT 9999 SCT030 18/10 Q1011 NOSIG=####018000190####
SAEG31 HECA 220800

Extra information for OJAQ:More info

Metar Taf Metar & Taf Last 4 Metars F.Rules Stats Wind Profile Meteogram Temp Stats Airport Information Weather charts Add Link Nearby VenuesMetar ALERT Operation Metar Decoded Social comments